Time;durP1;ratioP1;P1;durP2;ratioP2;P2;SDS_P1;SDS_P2;PMS_P1;PMS_P2;Temp;Humidity;BMP_temperature;BMP_pressure;BME280_temperature;BME280_humidity;BME280_pressure;Samples;Min_cycle;Max_cycle;Signal;HPM_P1;HPM_P2
2022/07/09 00:01:36;;;;;;;4.32;1.70;;;18.70;99.90;;;;;;5052770;28;20027;-49
2022/07/09 00:04:02;;;;;;;2.88;1.85;;;18.70;99.90;;;;;;5052806;28;20079;-44
2022/07/09 00:06:28;;;;;;;3.15;1.55;;;18.70;99.90;;;;;;5052914;28;20024;-44
2022/07/09 00:08:54;;;;;;;2.13;1.55;;;18.70;99.90;;;;;;5051774;28;20032;-43
2022/07/09 00:11:19;;;;;;;1.25;1.23;;;18.70;99.90;;;;;;5052566;28;20021;-46
2022/07/09 00:13:45;;;;;;;3.67;1.60;;;18.70;99.90;;;;;;5052642;28;20029;-48
2022/07/09 00:16:10;;;;;;;3.83;1.38;;;18.70;99.90;;;;;;5052811;28;20024;-46
2022/07/09 00:18:36;;;;;;;7.32;1.33;;;18.70;99.90;;;;;;5051684;28;20028;-44
2022/07/09 00:21:01;;;;;;;2.33;1.50;;;18.70;99.90;;;;;;5052626;28;20032;-47
2022/07/09 00:23:27;;;;;;;3.38;1.90;;;18.80;99.90;;;;;;5052269;28;20047;-45
2022/07/09 00:25:52;;;;;;;2.90;1.52;;;18.80;99.90;;;;;;5052265;28;20066;-45
2022/07/09 00:28:18;;;;;;;10.05;3.88;;;18.80;99.90;;;;;;5051580;28;20481;-46
2022/07/09 00:30:44;;;;;;;4.20;2.50;;;18.80;99.90;;;;;;5052040;28;20489;-47
2022/07/09 00:33:09;;;;;;;4.05;1.63;;;18.70;99.90;;;;;;5052284;28;20043;-46
2022/07/09 00:35:35;;;;;;;3.13;1.60;;;18.70;99.90;;;;;;5052069;28;20459;-45
2022/07/09 00:38:00;;;;;;;3.80;1.70;;;18.70;99.90;;;;;;5051752;28;20128;-48
2022/07/09 00:40:26;;;;;;;8.07;1.73;;;18.70;99.90;;;;;;5052199;28;20071;-43
2022/07/09 00:42:51;;;;;;;2.78;1.83;;;18.70;99.90;;;;;;5051110;28;20029;-45
2022/07/09 00:45:19;;;;;;;3.45;1.65;;;18.60;99.90;;;;;;5051967;28;20523;-50
2022/07/09 00:47:45;;;;;;;4.18;1.70;;;18.60;99.90;;;;;;5051288;28;20100;-45
2022/07/09 00:50:11;;;;;;;6.60;1.65;;;18.60;99.90;;;;;;5052188;28;20519;-46
2022/07/09 00:52:39;;;;;;;3.65;1.80;;;18.60;99.90;;;;;;5051950;28;20079;-45
2022/07/09 00:55:06;;;;;;;4.90;1.75;;;18.60;99.90;;;;;;5051868;28;20079;-46
2022/07/09 00:57:33;;;;;;;5.20;1.98;;;18.60;99.90;;;;;;5051511;28;20101;-46
2022/07/09 00:59:59;;;;;;;3.00;1.85;;;18.60;99.90;;;;;;5052260;28;20028;-46
2022/07/09 01:02:25;;;;;;;1.73;1.63;;;18.60;99.90;;;;;;5051873;28;20061;-48
2022/07/09 01:04:51;;;;;;;4.72;1.77;;;18.60;99.90;;;;;;5051930;28;20613;-48
2022/07/09 01:07:17;;;;;;;3.67;2.33;;;18.50;99.90;;;;;;5050956;28;20128;-48
2022/07/09 01:09:42;;;;;;;6.40;2.17;;;18.40;99.90;;;;;;5051824;28;20477;-46
2022/07/09 01:12:08;;;;;;;4.22;1.92;;;18.40;99.90;;;;;;5051731;28;20398;-48
2022/07/09 01:14:34;;;;;;;2.80;2.38;;;18.30;99.90;;;;;;5049949;28;20043;-50
2022/07/09 01:17:01;;;;;;;2.53;1.75;;;18.20;99.90;;;;;;5050574;28;20025;-46
2022/07/09 01:19:27;;;;;;;4.13;2.10;;;18.20;99.90;;;;;;5052194;28;20021;-46
2022/07/09 01:21:53;;;;;;;6.38;1.80;;;18.20;99.90;;;;;;5051475;28;20033;-48
2022/07/09 01:24:19;;;;;;;4.78;1.83;;;18.10;99.90;;;;;;5051440;28;20406;-49
2022/07/09 01:26:45;;;;;;;4.55;1.77;;;18.00;99.90;;;;;;5051253;28;20021;-44
2022/07/09 01:29:10;;;;;;;5.90;1.67;;;17.90;99.90;;;;;;5051191;28;20027;-49
2022/07/09 01:31:36;;;;;;;4.10;1.88;;;17.90;99.90;;;;;;5051220;28;20440;-49
2022/07/09 01:34:02;;;;;;;4.07;2.10;;;17.80;99.90;;;;;;5051752;28;20037;-48
2022/07/09 01:36:27;;;;;;;2.58;2.15;;;17.80;99.90;;;;;;5051328;28;20457;-47
2022/07/09 01:38:53;;;;;;;2.05;1.83;;;17.80;99.90;;;;;;5050952;28;20052;-48
2022/07/09 01:41:18;;;;;;;3.13;2.33;;;17.80;99.90;;;;;;5051820;28;20037;-45
2022/07/09 01:43:44;;;;;;;11.30;2.10;;;17.70;99.90;;;;;;5053505;28;20090;-47
2022/07/09 01:46:09;;;;;;;3.65;2.70;;;17.70;99.90;;;;;;5067014;22;20452;-44
2022/07/09 01:48:35;;;;;;;2.78;1.90;;;17.70;99.90;;;;;;5014182;28;20038;-46
2022/07/09 01:51:01;;;;;;;3.38;2.10;;;17.60;99.90;;;;;;5015677;28;20025;-46
2022/07/09 01:53:27;;;;;;;4.53;2.80;;;17.60;99.90;;;;;;5014549;28;20069;-46
2022/07/09 01:55:52;;;;;;;5.05;2.13;;;17.60;99.90;;;;;;5015258;28;20127;-41
2022/07/09 01:58:18;;;;;;;4.03;2.03;;;17.50;99.90;;;;;;5014584;28;20056;-49
2022/07/09 02:00:44;;;;;;;2.95;2.10;;;17.50;99.90;;;;;;5015399;28;20394;-50
2022/07/09 02:03:10;;;;;;;3.55;2.50;;;17.40;99.90;;;;;;5015336;28;20080;-45
2022/07/09 02:05:36;;;;;;;6.05;3.65;;;17.30;99.90;;;;;;5015201;28;20026;-46
2022/07/09 02:08:01;;;;;;;3.67;3.35;;;17.30;99.90;;;;;;5014689;28;20053;-44
2022/07/09 02:10:27;;;;;;;4.15;3.00;;;17.30;99.90;;;;;;5015484;28;20037;-47
2022/07/09 02:12:53;;;;;;;7.35;2.80;;;17.20;99.90;;;;;;5015284;28;20033;-46
2022/07/09 02:15:18;;;;;;;7.00;3.15;;;17.10;99.90;;;;;;5014939;28;20442;-47
2022/07/09 02:17:44;;;;;;;9.13;3.10;;;17.10;99.90;;;;;;5014302;28;20049;-41
2022/07/09 02:20:10;;;;;;;4.63;2.70;;;17.20;99.90;;;;;;5014923;28;20030;-47
2022/07/09 02:22:38;;;;;;;3.92;2.60;;;17.10;99.90;;;;;;5015136;28;20076;-50
2022/07/09 02:25:04;;;;;;;4.18;2.70;;;17.20;99.90;;;;;;5015521;28;20429;-44
2022/07/09 02:27:30;;;;;;;4.90;2.75;;;17.10;99.90;;;;;;5014110;28;20493;-43
2022/07/09 02:29:55;;;;;;;5.35;2.47;;;17.10;99.90;;;;;;5014821;28;20048;-49
2022/07/09 02:32:21;;;;;;;4.13;2.28;;;17.10;99.90;;;;;;5014483;28;20030;-45
2022/07/09 02:34:46;;;;;;;4.28;2.63;;;17.00;99.90;;;;;;5014679;28;20038;-50
2022/07/09 02:37:12;;;;;;;5.55;2.50;;;17.00;99.90;;;;;;5014331;28;20439;-46
2022/07/09 02:39:37;;;;;;;4.47;2.55;;;17.00;99.90;;;;;;5014674;28;20030;-49
2022/07/09 02:42:03;;;;;;;4.05;2.08;;;17.00;99.90;;;;;;5014553;28;20022;-47
2022/07/09 02:44:29;;;;;;;5.65;2.40;;;17.00;99.90;;;;;;5014599;28;20025;-49
2022/07/09 02:46:54;;;;;;;6.40;2.55;;;17.30;99.90;;;;;;5013531;28;20409;-46
2022/07/09 02:49:21;;;;;;;5.35;3.15;;;17.00;99.90;;;;;;5014418;28;20032;-44
2022/07/09 02:51:46;;;;;;;2.70;2.45;;;17.00;99.90;;;;;;5014485;28;20493;-49
2022/07/09 02:54:12;;;;;;;6.82;2.72;;;16.90;99.90;;;;;;5014291;28;20022;-45
2022/07/09 02:56:37;;;;;;;5.60;2.33;;;16.90;99.90;;;;;;5014312;28;20026;-43
2022/07/09 02:59:03;;;;;;;4.25;2.30;;;16.80;99.90;;;;;;5013671;28;20518;-48
2022/07/09 03:01:28;;;;;;;3.97;2.55;;;16.70;99.90;;;;;;5014348;28;20109;-50
2022/07/09 03:03:54;;;;;;;6.93;2.92;;;16.70;99.90;;;;;;5014068;28;20049;-47
2022/07/09 03:06:19;;;;;;;5.05;2.78;;;16.70;99.90;;;;;;5014485;28;20022;-48
2022/07/09 03:08:45;;;;;;;4.30;2.95;;;16.70;99.90;;;;;;5013415;28;20034;-44
2022/07/09 03:11:11;;;;;;;9.57;3.00;;;16.70;99.90;;;;;;5014023;28;20034;-49
2022/07/09 03:13:36;;;;;;;5.72;3.40;;;16.50;99.90;;;;;;5013872;28;20034;-47
2022/07/09 03:16:03;;;;;;;8.35;3.53;;;16.40;99.90;;;;;;5014296;28;20029;-45
2022/07/09 03:18:29;;;;;;;4.93;3.15;;;16.40;99.90;;;;;;5013774;28;20030;-41
2022/07/09 03:20:55;;;;;;;3.88;3.17;;;16.30;99.90;;;;;;5014204;28;20167;-46
2022/07/09 03:23:20;;;;;;;4.72;3.42;;;16.30;99.90;;;;;;5014014;28;20018;-50
2022/07/09 03:25:46;;;;;;;5.10;3.30;;;16.30;99.90;;;;;;5014180;28;20087;-45
2022/07/09 03:28:11;;;;;;;4.22;3.58;;;16.40;99.90;;;;;;5013399;28;20117;-48
2022/07/09 03:30:37;;;;;;;5.88;3.17;;;16.40;99.90;;;;;;5013814;28;20401;-47
2022/07/09 03:33:03;;;;;;;4.53;2.97;;;16.40;99.90;;;;;;4995954;28;20486;-51
2022/07/09 03:35:29;;;;;;;7.82;3.40;;;16.40;99.90;;;;;;5013520;28;20017;-47
2022/07/09 03:37:54;;;;;;;4.85;3.15;;;16.50;99.90;;;;;;5012788;28;20046;-51
2022/07/09 03:40:20;;;;;;;6.88;3.28;;;16.50;99.90;;;;;;5013649;28;20533;-45
2022/07/09 03:42:46;;;;;;;3.97;3.10;;;16.60;99.90;;;;;;5013463;28;20030;-47
2022/07/09 03:45:11;;;;;;;5.47;3.33;;;16.50;99.90;;;;;;5013512;28;20041;-44
2022/07/09 03:47:37;;;;;;;4.47;3.00;;;16.60;99.90;;;;;;5012554;28;20457;-49
2022/07/09 03:50:04;;;;;;;4.72;3.22;;;16.70;99.90;;;;;;4995967;28;20486;-50
2022/07/09 03:52:30;;;;;;;4.65;3.63;;;16.70;99.90;;;;;;5013393;28;20033;-53
2022/07/09 03:54:55;;;;;;;5.97;3.28;;;16.70;99.90;;;;;;5013244;28;20030;-49
2022/07/09 03:57:21;;;;;;;3.05;2.85;;;16.80;99.90;;;;;;5012254;28;20026;-44
2022/07/09 03:59:46;;;;;;;11.18;3.50;;;16.80;99.90;;;;;;5013066;28;20028;-46
2022/07/09 04:02:12;;;;;;;4.75;3.50;;;16.70;99.90;;;;;;5012937;28;20026;-46
2022/07/09 04:04:37;;;;;;;5.38;3.42;;;16.60;99.90;;;;;;5012516;28;20478;-45
2022/07/09 04:07:03;;;;;;;4.68;3.22;;;16.60;99.90;;;;;;5012378;28;20342;-41
2022/07/09 04:09:29;;;;;;;4.68;3.65;;;16.60;99.90;;;;;;5012987;28;20041;-46
2022/07/09 04:11:54;;;;;;;6.78;4.05;;;16.60;99.90;;;;;;5012838;28;20104;-49
2022/07/09 04:14:19;;;;;;;7.10;3.83;;;16.70;99.90;;;;;;5012916;28;20025;-49
2022/07/09 04:16:48;;;;;;;8.63;3.90;;;16.70;99.90;;;;;;5012470;28;20391;-46
2022/07/09 04:19:14;;;;;;;5.32;3.72;;;16.70;99.90;;;;;;5012329;28;20125;-44
2022/07/09 04:21:39;;;;;;;5.55;3.53;;;16.70;99.90;;;;;;5012900;28;20105;-48
2022/07/09 04:24:05;;;;;;;4.65;3.13;;;16.60;99.90;;;;;;5012607;28;20034;-41
2022/07/09 04:26:30;;;;;;;5.05;3.45;;;16.60;99.90;;;;;;5012524;28;20084;-43
2022/07/09 04:28:56;;;;;;;8.27;3.67;;;16.70;99.90;;;;;;5012086;28;20097;-45
2022/07/09 04:31:21;;;;;;;3.33;3.03;;;16.70;99.90;;;;;;5012783;28;20084;-45
2022/07/09 04:33:48;;;;;;;3.42;3.15;;;16.80;99.90;;;;;;5012724;28;20137;-46
2022/07/09 04:36:13;;;;;;;5.28;3.20;;;16.80;99.90;;;;;;5012647;28;20125;-45
2022/07/09 04:38:39;;;;;;;3.53;2.75;;;16.80;99.90;;;;;;5012008;28;20121;-46
2022/07/09 04:41:04;;;;;;;5.57;3.58;;;17.00;99.90;;;;;;5012557;28;20452;-47
2022/07/09 04:43:30;;;;;;;3.80;3.45;;;17.10;99.90;;;;;;5012491;28;20109;-42
2022/07/09 04:45:56;;;;;;;6.97;3.22;;;17.30;99.90;;;;;;5011968;28;20045;-45
2022/07/09 04:48:22;;;;;;;3.75;2.90;;;17.40;99.90;;;;;;5011578;28;20025;-50
2022/07/09 04:50:47;;;;;;;5.10;3.38;;;17.40;99.90;;;;;;5012199;28;20030;-45
2022/07/09 04:53:13;;;;;;;5.63;3.60;;;17.50;99.90;;;;;;5012236;28;20029;-41
2022/07/09 04:55:38;;;;;;;5.22;3.53;;;17.60;99.90;;;;;;5012094;28;20038;-46
2022/07/09 04:58:04;;;;;;;3.38;3.10;;;17.80;99.90;;;;;;5011324;28;20516;-48
2022/07/09 05:00:30;;;;;;;7.28;3.30;;;17.90;99.90;;;;;;5011948;28;20025;-47
2022/07/09 05:02:55;;;;;;;7.20;3.28;;;18.20;99.90;;;;;;5011916;28;20511;-42
2022/07/09 05:05:23;;;;;;;5.43;3.45;;;18.30;99.90;;;;;;5012146;28;20093;-51
2022/07/09 05:07:48;;;;;;;9.82;3.60;;;18.40;99.90;;;;;;5011204;28;20529;-45
2022/07/09 05:10:14;;;;;;;3.28;2.53;;;18.40;99.90;;;;;;5011758;28;20032;-48
2022/07/09 05:12:40;;;;;;;4.30;2.83;;;18.40;99.90;;;;;;5011762;28;20033;-48
2022/07/09 05:15:06;;;;;;;3.53;3.08;;;18.50;99.90;;;;;;5011960;28;20037;-41
2022/07/09 05:17:35;;;;;;;5.18;2.92;;;18.60;99.90;;;;;;5009904;28;20113;-51
2022/07/09 05:20:03;;;;;;;10.05;3.97;;;18.90;99.90;;;;;;5012026;28;20076;-49
2022/07/09 05:22:31;;;;;;;7.00;3.30;;;19.00;99.90;;;;;;5011611;28;20101;-46
2022/07/09 05:24:56;;;;;;;4.15;3.08;;;19.20;99.90;;;;;;5011901;28;20061;-46
2022/07/09 05:27:21;;;;;;;12.68;3.88;;;19.10;99.90;;;;;;5010682;28;20054;-46
2022/07/09 05:29:47;;;;;;;4.05;3.65;;;19.10;99.90;;;;;;5011561;28;20025;-48
2022/07/09 05:32:12;;;;;;;7.43;3.20;;;19.00;99.90;;;;;;5011668;28;20067;-43
2022/07/09 05:34:38;;;;;;;4.80;3.13;;;19.20;99.90;;;;;;5011567;28;20026;-44
2022/07/09 05:37:04;;;;;;;5.80;2.97;;;19.50;99.90;;;;;;5002651;28;20026;-45
2022/07/09 05:39:29;;;;;;;5.38;2.80;;;19.70;99.90;;;;;;5007830;28;20022;-44
2022/07/09 05:41:55;;;;;;;3.45;2.40;;;20.10;99.90;;;;;;5010905;28;20026;-40
2022/07/09 05:44:20;;;;;;;7.10;2.58;;;20.50;99.90;;;;;;5011329;28;20153;-50
2022/07/09 05:46:46;;;;;;;3.28;2.38;;;21.00;99.90;;;;;;5010871;28;20417;-47
2022/07/09 05:49:11;;;;;;;5.28;2.35;;;21.50;99.90;;;;;;5011041;28;20494;-45
2022/07/09 05:51:37;;;;;;;13.43;2.95;;;21.80;99.40;;;;;;5011271;28;20030;-47
2022/07/09 05:54:03;;;;;;;7.72;3.35;;;22.10;98.70;;;;;;5010867;28;20514;-47
2022/07/09 05:56:28;;;;;;;4.13;2.17;;;22.40;98.40;;;;;;5011039;28;20106;-49
2022/07/09 05:58:54;;;;;;;12.48;2.50;;;22.60;97.80;;;;;;5010452;28;20038;-48
2022/07/09 06:01:19;;;;;;;2.63;2.08;;;22.70;97.60;;;;;;5011000;28;20026;-42
2022/07/09 06:03:46;;;;;;;2.30;1.67;;;22.80;96.80;;;;;;5011058;28;20036;-50
2022/07/09 06:06:12;;;;;;;6.05;2.30;;;22.90;97.20;;;;;;5010811;28;20018;-48
2022/07/09 06:08:38;;;;;;;5.45;1.75;;;23.30;97.10;;;;;;5010154;28;20033;-40
2022/07/09 06:11:04;;;;;;;2.38;2.00;;;23.80;96.30;;;;;;5011202;28;20402;-50
2022/07/09 06:13:29;;;;;;;4.13;2.03;;;24.60;94.50;;;;;;5005602;28;20512;-49
2022/07/09 06:15:55;;;;;;;1.98;1.70;;;25.20;93.70;;;;;;5010869;28;20033;-46
2022/07/09 06:18:22;;;;;;;10.13;2.22;;;25.90;93.20;;;;;;5010262;28;20033;-49
2022/07/09 06:20:47;;;;;;;8.35;2.40;;;26.40;91.20;;;;;;5010730;28;20026;-43
2022/07/09 06:23:13;;;;;;;3.97;1.63;;;26.70;90.90;;;;;;5010879;28;20107;-44
2022/07/09 06:25:39;;;;;;;5.20;2.20;;;27.00;90.30;;;;;;5010392;28;20057;-47
2022/07/09 06:28:05;;;;;;;5.80;1.77;;;27.50;89.10;;;;;;5010908;28;20148;-47
2022/07/09 06:30:33;;;;;;;5.32;1.70;;;27.70;88.00;;;;;;5014612;28;20034;-45
2022/07/09 06:32:59;;;;;;;5.55;1.80;;;28.00;87.80;;;;;;5013823;28;20022;-44
2022/07/09 06:35:25;;;;;;;3.65;1.60;;;28.70;85.30;;;;;;5014896;28;20042;-47
2022/07/09 06:37:50;;;;;;;3.00;1.52;;;29.00;83.20;;;;;;5013808;28;20518;-52
2022/07/09 06:40:16;;;;;;;2.53;1.65;;;29.30;83.20;;;;;;5014693;28;20116;-49
2022/07/09 06:42:42;;;;;;;2.90;1.58;;;29.30;81.40;;;;;;5014273;28;20018;-45
2022/07/09 06:45:08;;;;;;;3.08;1.73;;;29.20;81.20;;;;;;5014439;28;20434;-47
2022/07/09 06:47:33;;;;;;;2.60;1.30;;;28.60;81.80;;;;;;5013295;28;20055;-48
2022/07/09 06:49:59;;;;;;;2.25;1.58;;;27.50;84.10;;;;;;5014519;28;20026;-50
2022/07/09 06:52:24;;;;;;;3.20;2.00;;;26.70;85.80;;;;;;5014298;28;20069;-47
2022/07/09 06:54:50;;;;;;;11.50;1.90;;;26.10;87.50;;;;;;4996732;28;20113;-51
2022/07/09 06:57:17;;;;;;;5.75;2.03;;;25.40;89.60;;;;;;5013324;28;20396;-45
2022/07/09 06:59:43;;;;;;;3.92;1.90;;;25.10;90.30;;;;;;5014225;28;20022;-46
2022/07/09 07:02:08;;;;;;;2.10;1.90;;;24.90;90.70;;;;;;5014303;28;20014;-47
2022/07/09 07:04:34;;;;;;;4.90;2.15;;;24.80;91.40;;;;;;5014185;28;20022;-46
2022/07/09 07:07:00;;;;;;;5.90;1.70;;;25.30;91.70;;;;;;5013386;28;20022;-47
2022/07/09 07:09:25;;;;;;;6.65;1.77;;;26.50;90.20;;;;;;5014191;28;20053;-48
2022/07/09 07:11:51;;;;;;;2.67;2.05;;;27.70;87.20;;;;;;4996312;28;20037;-46
2022/07/09 07:14:17;;;;;;;3.92;1.75;;;28.10;85.40;;;;;;5013965;28;20034;-47
2022/07/09 07:16:43;;;;;;;8.07;1.80;;;28.70;83.10;;;;;;5013658;28;20601;-49
2022/07/09 07:19:10;;;;;;;6.05;2.03;;;29.10;83.00;;;;;;5013566;28;20026;-48
2022/07/09 07:21:36;;;;;;;6.30;1.95;;;29.70;81.50;;;;;;5013933;28;20175;-46
2022/07/09 07:24:03;;;;;;;7.88;2.25;;;30.30;79.60;;;;;;5013790;28;20037;-48
2022/07/09 07:26:28;;;;;;;2.70;1.40;;;29.90;79.80;;;;;;5013667;28;20281;-48
2022/07/09 07:28:54;;;;;;;7.03;2.35;;;30.00;80.20;;;;;;4995468;28;20545;-49
2022/07/09 07:31:20;;;;;;;6.25;1.58;;;30.10;78.30;;;;;;5013909;28;20041;-43
2022/07/09 07:33:45;;;;;;;6.72;2.22;;;29.20;79.60;;;;;;5013445;28;20025;-46
2022/07/09 07:36:11;;;;;;;8.93;1.73;;;28.40;81.20;;;;;;5013550;28;20034;-46
2022/07/09 07:38:36;;;;;;;3.95;2.28;;;27.80;83.00;;;;;;5012618;28;20026;-46
2022/07/09 07:41:02;;;;;;;9.05;2.70;;;27.00;84.40;;;;;;5012464;28;20072;-42
2022/07/09 07:43:27;;;;;;;6.45;2.17;;;26.30;85.60;;;;;;5013604;28;20486;-47
2022/07/09 07:48:27;;;;;;;9.80;3.22;;;25.10;89.50;;;;;;5051938;23;20067;-47
2022/07/09 07:50:54;;;;;;;3.75;2.40;;;24.60;90.30;;;;;;5033121;28;20414;-49
2022/07/09 07:53:20;;;;;;;6.20;3.58;;;24.30;91.20;;;;;;5033351;28;20516;-46
2022/07/09 07:55:46;;;;;;;9.05;3.53;;;24.00;92.20;;;;;;5032131;28;20394;-46
2022/07/09 07:58:11;;;;;;;6.40;3.80;;;24.00;92.20;;;;;;5032077;28;20064;-47
2022/07/09 08:00:37;;;;;;;7.03;3.30;;;23.70;92.00;;;;;;5032530;28;20083;-46
2022/07/09 08:03:03;;;;;;;7.97;2.60;;;23.70;92.70;;;;;;5022738;28;20414;-49
2022/07/09 08:05:28;;;;;;;5.05;2.55;;;23.60;93.40;;;;;;4995537;28;20033;-48
2022/07/09 08:07:54;;;;;;;7.25;2.67;;;23.90;92.70;;;;;;5016390;28;20030;-49
2022/07/09 08:10:20;;;;;;;5.43;3.47;;;24.00;92.70;;;;;;5001114;28;20029;-48
2022/07/09 08:12:45;;;;;;;9.43;3.30;;;24.00;92.20;;;;;;4997590;28;20069;-47
2022/07/09 08:15:11;;;;;;;7.15;2.45;;;24.20;92.40;;;;;;5031886;28;20396;-55
2022/07/09 08:17:37;;;;;;;6.20;2.65;;;24.70;91.80;;;;;;5025652;28;20025;-46
2022/07/09 08:20:03;;;;;;;9.60;2.42;;;25.30;91.40;;;;;;5013419;28;20064;-45
2022/07/09 08:22:29;;;;;;;5.95;3.20;;;25.80;90.00;;;;;;5018240;28;20026;-53
2022/07/09 08:24:54;;;;;;;12.45;3.22;;;25.90;88.20;;;;;;5032974;28;20047;-50
2022/07/09 08:27:20;;;;;;;5.72;2.90;;;25.70;89.20;;;;;;5033311;28;20087;-47
2022/07/09 08:29:48;;;;;;;6.40;2.92;;;25.90;89.50;;;;;;5032159;28;20029;-48
2022/07/09 08:32:14;;;;;;;6.18;2.35;;;26.40;88.80;;;;;;5032162;28;20024;-48
2022/07/09 08:34:39;;;;;;;6.55;3.00;;;26.90;87.50;;;;;;5032140;28;20013;-50
2022/07/09 08:37:05;;;;;;;8.13;2.80;;;27.40;85.90;;;;;;5031050;28;20030;-49
2022/07/09 08:39:31;;;;;;;3.83;2.53;;;27.40;83.50;;;;;;5023835;28;20017;-47
2022/07/09 08:41:58;;;;;;;5.60;2.63;;;27.10;83.40;;;;;;5012435;28;20030;-49
2022/07/09 08:44:28;;;;;;;7.15;2.53;;;26.80;85.00;;;;;;5025780;28;20474;-51
2022/07/09 08:46:55;;;;;;;7.50;2.90;;;26.20;86.00;;;;;;5013474;28;20037;-46
2022/07/09 08:49:24;;;;;;;6.55;2.72;;;26.00;87.00;;;;;;5028548;28;20087;-47
2022/07/09 08:51:51;;;;;;;9.02;2.63;;;25.80;87.20;;;;;;4994881;28;20120;-48
2022/07/09 08:54:19;;;;;;;7.90;2.40;;;25.60;88.00;;;;;;5023055;28;20029;-49
2022/07/09 08:56:45;;;;;;;3.85;2.13;;;25.30;88.40;;;;;;5031582;28;20041;-48
2022/07/09 08:59:10;;;;;;;5.40;2.30;;;25.10;88.10;;;;;;5030464;28;20029;-53
2022/07/09 09:01:35;;;;;;;3.55;2.17;;;24.80;88.30;;;;;;5031736;28;20036;-53
2022/07/09 09:04:02;;;;;;;3.05;1.67;;;24.90;87.80;;;;;;5031729;28;20485;-48
2022/07/09 09:06:28;;;;;;;5.07;1.98;;;25.20;87.80;;;;;;5031766;28;20025;-45
2022/07/09 09:08:55;;;;;;;3.10;2.45;;;25.50;87.00;;;;;;5046505;28;20448;-47
2022/07/09 09:11:24;;;;;;;5.18;3.50;;;25.60;87.30;;;;;;5031756;28;20060;-50
2022/07/09 09:13:50;;;;;;;7.57;3.90;;;25.80;86.10;;;;;;5031651;28;20021;-46
2022/07/09 09:16:17;;;;;;;3.40;2.17;;;25.90;85.10;;;;;;5031170;28;20523;-48
2022/07/09 09:18:45;;;;;;;4.00;2.60;;;25.80;86.30;;;;;;5030779;28;20448;-50
2022/07/09 09:21:12;;;;;;;4.70;1.70;;;25.60;86.70;;;;;;5029552;28;20091;-47
2022/07/09 09:23:54;;;;;;;3.08;1.65;;;25.40;85.80;;;;;;5029688;28;20078;-47
2022/07/09 09:26:25;;;;;;;2.22;1.48;;;25.20;85.30;;;;;;5030824;28;20489;-53
2022/07/09 09:29:01;;;;;;;4.60;1.92;;;25.30;85.80;;;;;;5045502;28;20036;-50
2022/07/09 09:31:33;;;;;;;9.38;2.15;;;25.50;86.00;;;;;;5031452;28;20029;-52
2022/07/09 09:34:15;;;;;;;2.90;1.70;;;25.60;84.40;;;;;;5031305;28;20075;-51
2022/07/09 09:36:43;;;;;;;4.75;2.00;;;25.50;84.60;;;;;;5030947;28;20037;-46
2022/07/09 09:39:23;;;;;;;6.35;1.73;;;25.50;85.40;;;;;;5030641;28;20033;-47
2022/07/09 09:41:51;;;;;;;3.15;1.70;;;25.60;84.70;;;;;;5030624;28;20034;-47
2022/07/09 09:44:19;;;;;;;6.13;1.90;;;25.50;84.30;;;;;;5031459;28;20406;-46
2022/07/09 09:46:45;;;;;;;2.92;1.55;;;25.30;84.70;;;;;;5030382;28;20041;-50
2022/07/09 09:49:14;;;;;;;6.60;1.70;;;25.20;84.30;;;;;;5031297;28;20524;-48
2022/07/09 09:52:04;;;;;;;4.13;1.60;;;25.10;84.50;;;;;;5031580;28;20025;-47
2022/07/09 09:54:32;;;;;;;1.38;1.27;;;25.10;84.50;;;;;;5031662;28;20065;-51
2022/07/09 09:56:59;;;;;;;3.40;1.88;;;25.20;84.50;;;;;;5012961;28;20124;-50
2022/07/09 09:59:25;;;;;;;3.22;1.55;;;25.20;84.50;;;;;;5030131;28;20400;-46
2022/07/09 10:01:51;;;;;;;2.55;1.67;;;25.30;85.40;;;;;;5030526;28;20033;-48
2022/07/09 10:04:18;;;;;;;3.58;1.83;;;25.60;84.40;;;;;;5014743;28;20029;-49
2022/07/09 10:06:44;;;;;;;7.90;1.50;;;25.60;83.20;;;;;;5022401;28;20013;-46
2022/07/09 10:09:14;;;;;;;3.22;1.10;;;25.80;83.00;;;;;;5034438;28;20022;-45
2022/07/09 10:11:49;;;;;;;3.92;1.23;;;26.00;82.60;;;;;;5034989;28;20025;-46
2022/07/09 10:14:32;;;;;;;1.40;1.30;;;25.90;81.30;;;;;;5033606;28;20029;-46
2022/07/09 10:17:15;;;;;;;3.67;1.70;;;25.70;82.10;;;;;;5031927;28;20062;-45
2022/07/09 10:20:01;;;;;;;3.72;1.70;;;25.50;82.70;;;;;;5034809;28;20045;-45
2022/07/09 10:22:44;;;;;;;3.70;1.42;;;25.30;82.70;;;;;;5025025;28;20025;-46
2022/07/09 10:25:22;;;;;;;1.63;1.40;;;25.20;82.90;;;;;;5034197;28;20021;-45
2022/07/09 10:27:51;;;;;;;4.43;1.38;;;25.30;84.10;;;;;;5034352;28;20497;-44
2022/07/09 10:30:28;;;;;;;2.17;1.30;;;25.50;83.80;;;;;;5035035;28;20068;-44
2022/07/09 10:33:09;;;;;;;2.25;1.08;;;25.40;82.50;;;;;;5034726;28;20021;-45
2022/07/09 10:35:44;;;;;;;0.93;0.90;;;25.40;81.80;;;;;;5034660;28;20112;-43
2022/07/09 10:38:11;;;;;;;1.15;1.00;;;25.60;81.80;;;;;;5033932;28;20389;-43
2022/07/09 10:40:43;;;;;;;3.65;0.93;;;25.80;81.50;;;;;;5034418;28;20405;-44
2022/07/09 10:43:10;;;;;;;4.38;1.20;;;25.90;81.40;;;;;;5034716;28;20022;-44
2022/07/09 10:45:41;;;;;;;2.47;1.13;;;25.90;81.00;;;;;;5015448;28;20025;-44
2022/07/09 10:48:09;;;;;;;2.92;1.10;;;25.90;80.90;;;;;;5033449;28;20044;-47
2022/07/09 10:50:40;;;;;;;3.33;1.20;;;25.80;80.90;;;;;;5034041;28;20064;-43
2022/07/09 10:53:06;;;;;;;2.22;0.95;;;25.60;80.80;;;;;;5033953;28;20084;-45
2022/07/09 10:55:32;;;;;;;1.30;0.98;;;25.60;79.60;;;;;;5034154;28;20041;-45
2022/07/09 10:57:58;;;;;;;4.53;1.10;;;25.60;80.80;;;;;;5033319;28;20116;-44
2022/07/09 11:00:28;;;;;;;2.08;1.08;;;25.60;80.10;;;;;;5034055;28;20067;-45
2022/07/09 11:03:03;;;;;;;1.90;0.95;;;25.50;81.10;;;;;;5033916;28;20033;-44
2022/07/09 11:05:30;;;;;;;1.75;1.00;;;25.50;80.30;;;;;;5034022;28;20405;-44
2022/07/09 11:08:05;;;;;;;4.78;0.93;;;25.30;80.10;;;;;;5033421;28;20436;-44
2022/07/09 11:10:34;;;;;;;1.13;1.02;;;25.30;81.40;;;;;;5034004;28;20104;-46
2022/07/09 11:13:00;;;;;;;3.13;1.10;;;25.30;81.10;;;;;;5033784;28;20076;-44
2022/07/09 11:15:33;;;;;;;5.70;1.20;;;25.30;80.50;;;;;;5033681;28;20069;-45
2022/07/09 11:18:09;;;;;;;1.20;1.10;;;25.40;80.20;;;;;;5032843;28;20017;-46
2022/07/09 11:20:40;;;;;;;2.67;1.10;;;25.60;80.60;;;;;;5033767;28;20021;-47
2022/07/09 11:23:08;;;;;;;5.75;1.38;;;25.70;79.70;;;;;;5033798;28;20455;-46
2022/07/09 11:25:34;;;;;;;1.83;1.23;;;25.80;78.90;;;;;;5033613;28;20025;-46
2022/07/09 11:28:00;;;;;;;2.13;0.98;;;25.80;78.80;;;;;;5032798;28;20043;-43
2022/07/09 11:30:27;;;;;;;2.33;1.30;;;25.80;79.40;;;;;;5033674;28;20041;-44
2022/07/09 11:32:53;;;;;;;1.25;1.15;;;25.80;79.90;;;;;;5033855;28;20093;-47
2022/07/09 11:35:28;;;;;;;3.00;1.50;;;25.90;79.30;;;;;;5033639;28;20104;-44
2022/07/09 11:37:54;;;;;;;2.00;1.27;;;26.10;79.20;;;;;;5032618;28;20116;-44
2022/07/09 11:40:20;;;;;;;1.10;1.10;;;25.90;77.40;;;;;;5033794;28;20029;-47
2022/07/09 11:42:46;;;;;;;5.32;1.20;;;25.90;78.70;;;;;;5015524;28;20025;-45
2022/07/09 11:45:12;;;;;;;1.95;1.10;;;25.90;78.30;;;;;;5033511;28;20486;-48
2022/07/09 11:47:39;;;;;;;2.10;1.52;;;25.90;78.30;;;;;;5031169;28;20065;-46
2022/07/09 11:50:12;;;;;;;2.42;1.20;;;25.80;78.40;;;;;;5033501;28;20108;-45
2022/07/09 11:52:49;;;;;;;4.30;1.20;;;25.70;79.50;;;;;;5033551;28;20431;-44
2022/07/09 11:55:19;;;;;;;2.78;1.45;;;25.80;79.90;;;;;;5033983;28;20053;-44
2022/07/09 11:58:14;;;;;;;1.77;1.35;;;25.90;80.20;;;;;;5032054;28;20021;-45
2022/07/09 12:00:40;;;;;;;1.87;1.20;;;26.00;80.00;;;;;;5016103;28;20555;-45
2022/07/09 12:03:06;;;;;;;1.00;0.88;;;26.10;79.80;;;;;;5032906;28;20025;-42
2022/07/09 12:05:39;;;;;;;2.75;1.33;;;26.20;80.20;;;;;;5033244;28;20108;-48
2022/07/09 12:08:07;;;;;;;2.83;1.10;;;26.10;79.30;;;;;;5032042;28;20466;-45
2022/07/09 12:10:37;;;;;;;2.55;1.20;;;26.20;78.20;;;;;;5032831;28;20057;-49
2022/07/09 12:13:04;;;;;;;1.48;0.98;;;26.10;77.40;;;;;;5032988;28;20183;-45
2022/07/09 12:15:30;;;;;;;3.58;1.23;;;26.10;78.20;;;;;;5032618;28;20036;-44
2022/07/09 12:17:58;;;;;;;4.75;1.60;;;26.10;79.10;;;;;;5031905;28;20079;-46
2022/07/09 12:20:25;;;;;;;6.60;1.35;;;26.10;79.10;;;;;;5032849;28;20436;-49
2022/07/09 12:22:51;;;;;;;4.35;1.40;;;26.00;78.70;;;;;;5032627;28;20489;-46
2022/07/09 12:25:18;;;;;;;2.55;1.20;;;26.00;78.70;;;;;;5032526;28;20083;-49
2022/07/09 12:27:43;;;;;;;2.08;1.27;;;25.90;79.40;;;;;;5031835;28;20025;-45
2022/07/09 12:30:09;;;;;;;1.50;1.25;;;25.90;77.70;;;;;;5032693;28;20074;-45
2022/07/09 12:32:35;;;;;;;2.42;1.10;;;25.70;75.70;;;;;;5032338;28;20172;-49
2022/07/09 12:35:01;;;;;;;4.47;1.30;;;25.50;77.60;;;;;;5032644;28;20167;-44
2022/07/09 12:37:27;;;;;;;2.03;1.20;;;25.40;77.90;;;;;;5031738;28;20022;-42
2022/07/09 12:39:53;;;;;;;2.20;1.30;;;25.30;78.50;;;;;;5032623;28;20036;-49
2022/07/09 12:42:19;;;;;;;4.28;1.17;;;25.40;78.60;;;;;;5032491;28;20035;-44
2022/07/09 12:44:45;;;;;;;1.38;1.27;;;25.50;79.00;;;;;;5014819;28;20488;-44
2022/07/09 12:47:11;;;;;;;2.40;1.30;;;25.60;79.30;;;;;;5030500;28;20076;-44